Time;durP1;ratioP1;P1;durP2;ratioP2;P2;SDS_P1;SDS_P2;PMS_P1;PMS_P2;Temp;Humidity;BMP_temperature;BMP_pressure;BME280_temperature;BME280_humidity;BME280_pressure;Samples;Min_cycle;Max_cycle;Signal;HPM_P1;HPM_P2
2023/01/18 00:01:51;;;;;;;;;;;0.60;99.90;;;;;;5126855;28;20204;-68
2023/01/18 00:04:17;;;;;;;;;;;0.60;99.90;;;;;;5127209;28;19994;-69
2023/01/18 00:06:46;;;;;;;;;;;0.60;99.90;;;;;;5126319;28;19982;-68
2023/01/18 00:09:13;;;;;;;;;;;0.60;99.90;;;;;;5126823;28;19987;-68
2023/01/18 00:11:40;;;;;;;;;;;0.60;99.90;;;;;;5127166;28;19982;-68
2023/01/18 00:14:07;;;;;;;;;;;0.50;99.90;;;;;;5126297;28;19924;-69
2023/01/18 00:16:33;;;;;;;;;;;0.50;99.90;;;;;;5126107;28;19920;-68
2023/01/18 00:19:00;;;;;;;;;;;0.50;99.90;;;;;;5126954;28;19990;-68
2023/01/18 00:21:27;;;;;;;;;;;0.50;99.90;;;;;;5126864;28;20158;-68
2023/01/18 00:23:55;;;;;;;;;;;0.50;99.90;;;;;;5126351;28;19950;-68
2023/01/18 00:26:22;;;;;;;;;;;0.50;99.90;;;;;;5125908;28;19942;-68
2023/01/18 00:28:49;;;;;;;;;;;0.60;99.90;;;;;;5126451;28;19989;-68
2023/01/18 00:31:16;;;;;;;;;;;0.60;99.90;;;;;;5126707;28;19955;-68
2023/01/18 00:33:43;;;;;;;;;;;0.60;99.90;;;;;;5126549;28;19962;-68
2023/01/18 00:36:10;;;;;;;;;;;0.50;99.90;;;;;;5125898;28;20116;-68
2023/01/18 00:38:36;;;;;;;;;;;0.50;99.90;;;;;;5126610;28;19926;-68
2023/01/18 00:41:04;;;;;;;;;;;0.50;99.90;;;;;;5126847;28;19920;-68
2023/01/18 00:43:39;;;;;;;;;;;0.50;99.90;;;;;;5125963;28;20167;-68
2023/01/18 00:46:05;;;;;;;;;;;0.40;99.90;;;;;;5125870;28;19931;-68
2023/01/18 00:48:32;;;;;;;;;;;0.50;99.90;;;;;;5126344;28;19927;-69
2023/01/18 00:50:59;;;;;;;;;;;0.40;99.90;;;;;;5126298;28;19920;-68
2023/01/18 00:53:25;;;;;;;;;;;0.40;99.90;;;;;;5126149;28;19951;-68
2023/01/18 00:55:52;;;;;;;;;;;0.40;99.90;;;;;;5125737;28;19920;-68
2023/01/18 00:58:20;;;;;;;;;;;0.40;99.90;;;;;;5125431;28;20274;-69
2023/01/18 01:00:47;;;;;;;;;;;0.30;99.90;;;;;;5126092;28;19920;-68
2023/01/18 01:03:14;;;;;;;;;;;0.40;99.90;;;;;;5125878;28;20055;-69
2023/01/18 01:08:25;;;;;;;;;;;0.40;99.90;;;;;;5125592;28;19960;-68
2023/01/18 01:10:53;;;;;;;;;;;0.40;99.90;;;;;;5125988;28;19926;-68
2023/01/18 01:27:04;;;;;;;;;;;0.40;99.90;;;;;;5124786;28;19922;-68
2023/01/18 01:29:32;;;;;;;;;;;0.40;99.90;;;;;;5125511;28;19987;-68
2023/01/18 01:31:58;;;;;;;;;;;0.40;99.90;;;;;;5125554;28;19958;-68
2023/01/18 01:34:25;;;;;;;;;;;0.40;99.90;;;;;;5125247;28;19979;-68
2023/01/18 01:36:52;;;;;;;;;;;0.40;99.90;;;;;;5124689;28;20119;-69
2023/01/18 01:39:19;;;;;;;;;;;0.40;99.90;;;;;;5125450;28;19919;-68
2023/01/18 01:41:45;;;;;;;;;;;0.40;99.90;;;;;;5125204;28;19955;-68
2023/01/18 01:44:33;;;;;;;;;;;0.50;99.90;;;;;;5124884;28;19979;-68
2023/01/18 01:47:02;;;;;;;;;;;0.50;99.90;;;;;;5124514;28;19920;-68
2023/01/18 01:49:31;;;;;;;;;;;0.50;99.90;;;;;;5125126;28;19965;-68
2023/01/18 01:51:59;;;;;;;;;;;0.50;99.90;;;;;;5124811;28;19923;-69
2023/01/18 01:54:28;;;;;;;;;;;0.50;99.90;;;;;;5125291;28;20127;-68
2023/01/18 01:56:57;;;;;;;;;;;0.50;99.90;;;;;;5123821;28;20291;-68
2023/01/18 01:59:24;;;;;;;;;;;0.50;99.90;;;;;;5124964;28;19926;-68
2023/01/18 02:01:51;;;;;;;;;;;0.50;99.90;;;;;;5124750;28;19986;-68
2023/01/18 02:04:18;;;;;;;;;;;0.50;99.90;;;;;;5125011;28;19948;-68
2023/01/18 02:06:45;;;;;;;;;;;0.50;99.90;;;;;;5124237;28;19983;-69
2023/01/18 02:09:14;;;;;;;;;;;0.50;99.90;;;;;;5124604;28;20191;-68
2023/01/18 02:11:41;;;;;;;;;;;0.50;99.90;;;;;;5124916;28;20146;-68
2023/01/18 02:14:09;;;;;;;;;;;0.50;99.90;;;;;;5124938;28;19987;-68
2023/01/18 02:16:43;;;;;;;;;;;0.50;99.90;;;;;;5123759;28;20224;-68
2023/01/18 02:19:17;;;;;;;;;;;0.50;99.90;;;;;;5124781;28;20118;-68
2023/01/18 02:21:46;;;;;;;;;;;0.50;99.90;;;;;;5124300;28;19991;-68
2023/01/18 02:24:30;;;;;;;;;;;0.50;99.90;;;;;;5124263;28;20212;-68
2023/01/18 02:26:59;;;;;;;;;;;0.60;99.90;;;;;;5124001;28;19946;-69
2023/01/18 02:29:37;;;;;;;;;;;0.50;99.90;;;;;;5124647;28;19920;-68
2023/01/18 02:32:10;;;;;;;;;;;0.50;99.90;;;;;;5124508;28;19958;-68
2023/01/18 02:34:39;;;;;;;;;;;0.50;99.90;;;;;;5124218;28;19958;-69
2023/01/18 02:37:09;;;;;;;;;;;0.50;99.90;;;;;;5123394;28;19957;-68
2023/01/18 02:39:41;;;;;;;;;;;0.60;99.90;;;;;;5124537;28;20110;-68
2023/01/18 02:47:40;;;;;;;;;;;0.60;99.90;;;;;;5123523;28;19958;-68
2023/01/18 02:50:07;;;;;;;;;;;0.60;99.90;;;;;;5124249;28;19994;-69
2023/01/18 02:52:39;;;;;;;;;;;0.60;99.90;;;;;;5124093;28;19920;-68
2023/01/18 02:55:07;;;;;;;;;;;0.60;99.90;;;;;;5124235;28;19920;-67
2023/01/18 02:57:34;;;;;;;;;;;0.60;99.90;;;;;;5123364;28;20225;-68
2023/01/18 03:00:03;;;;;;;;;;;0.50;99.90;;;;;;5109695;28;20114;-68
2023/01/18 03:02:30;;;;;;;;;;;0.50;99.90;;;;;;5116298;28;19920;-68
2023/01/18 03:04:56;;;;;;;;;;;0.60;99.90;;;;;;5123934;28;19927;-68
2023/01/18 03:07:26;;;;;;;;;;;0.60;99.90;;;;;;5123158;28;19919;-68
2023/01/18 03:09:53;;;;;;;;;;;0.60;99.90;;;;;;5123791;28;19919;-68
2023/01/18 03:12:23;;;;;;;;;;;0.60;99.90;;;;;;5123977;28;19926;-68
2023/01/18 03:14:53;;;;;;;;;;;0.70;99.90;;;;;;5124170;28;19982;-68
2023/01/18 03:17:24;;;;;;;;;;;0.60;99.90;;;;;;5123053;28;19982;-68
2023/01/18 03:20:04;;;;;;;;;;;0.60;99.90;;;;;;5124074;28;19961;-68
2023/01/18 03:25:19;;;;;;;;;;;0.60;99.90;;;;;;5123684;28;20233;-69
2023/01/18 03:36:06;;;;;;;;;;;0.60;99.90;;;;;;5123119;28;19988;-68
2023/01/18 03:38:33;;;;;;;;;;;0.60;99.90;;;;;;5123840;28;19920;-68
2023/01/18 03:41:00;;;;;;;;;;;0.60;99.90;;;;;;5123846;28;19982;-68
2023/01/18 03:43:35;;;;;;;;;;;0.60;99.90;;;;;;5119427;28;20330;-68
2023/01/18 03:46:02;;;;;;;;;;;0.60;99.90;;;;;;5110850;28;19927;-69
2023/01/18 03:48:30;;;;;;;;;;;0.70;99.90;;;;;;5104441;28;19979;-69
2023/01/18 03:50:59;;;;;;;;;;;0.70;99.90;;;;;;5107094;28;19920;-68
2023/01/18 03:53:28;;;;;;;;;;;0.60;99.90;;;;;;5106930;28;20150;-69
2023/01/18 03:55:58;;;;;;;;;;;0.60;99.90;;;;;;5106502;28;19928;-68
2023/01/18 03:58:30;;;;;;;;;;;0.70;99.90;;;;;;5107581;28;19983;-68
2023/01/18 04:00:56;;;;;;;;;;;0.70;99.90;;;;;;5127311;28;19919;-68
2023/01/18 04:03:23;;;;;;;;;;;0.60;99.90;;;;;;5127256;28;19919;-69
2023/01/18 04:05:51;;;;;;;;;;;0.70;99.90;;;;;;5126427;28;19969;-67
2023/01/18 04:08:20;;;;;;;;;;;0.70;99.90;;;;;;5126916;28;20131;-68
2023/01/18 04:10:47;;;;;;;;;;;0.60;99.90;;;;;;5127050;28;20152;-68
2023/01/18 04:13:13;;;;;;;;;;;0.60;99.90;;;;;;5127039;28;19982;-68
2023/01/18 04:15:40;;;;;;;;;;;0.60;99.90;;;;;;5126691;28;19955;-69
2023/01/18 04:18:07;;;;;;;;;;;0.60;99.90;;;;;;5126698;28;19920;-68
2023/01/18 04:20:33;;;;;;;;;;;0.60;99.90;;;;;;5126615;28;20208;-68
2023/01/18 04:23:01;;;;;;;;;;;0.70;99.90;;;;;;5126505;28;19961;-68
2023/01/18 04:25:28;;;;;;;;;;;0.60;99.90;;;;;;5126631;28;19919;-68
2023/01/18 04:27:55;;;;;;;;;;;0.70;99.90;;;;;;5126141;28;19920;-68
2023/01/18 04:30:21;;;;;;;;;;;0.70;99.90;;;;;;5126739;28;20132;-69
2023/01/18 04:32:48;;;;;;;;;;;0.70;99.90;;;;;;5126271;28;19954;-68
2023/01/18 04:35:15;;;;;;;;;;;0.70;99.90;;;;;;5126120;28;19926;-68
2023/01/18 04:37:42;;;;;;;;;;;0.60;99.90;;;;;;5125665;28;19919;-68
2023/01/18 04:40:10;;;;;;;;;;;0.60;99.90;;;;;;5126195;28;19939;-68
2023/01/18 04:42:37;;;;;;;;;;;0.60;99.90;;;;;;5117861;28;20139;-68
2023/01/18 04:45:04;;;;;;;;;;;0.60;99.90;;;;;;5126282;28;19986;-68
2023/01/18 04:47:31;;;;;;;;;;;0.60;99.90;;;;;;5115323;28;20208;-68
2023/01/18 04:49:57;;;;;;;;;;;0.60;99.90;;;;;;5105947;28;19987;-68
2023/01/18 04:52:25;;;;;;;;;;;0.60;99.90;;;;;;5105935;28;19954;-68
2023/01/18 04:54:52;;;;;;;;;;;0.60;99.90;;;;;;5105891;28;19948;-68
2023/01/18 04:57:20;;;;;;;;;;;0.60;99.90;;;;;;5112912;28;19926;-68
2023/01/18 04:59:46;;;;;;;;;;;0.60;99.90;;;;;;5125063;28;19919;-68
2023/01/18 05:02:14;;;;;;;;;;;0.60;99.90;;;;;;5125958;28;19919;-68
2023/01/18 05:04:42;;;;;;;;;;;0.60;99.90;;;;;;5126053;28;19919;-69
2023/01/18 05:07:09;;;;;;;;;;;0.60;99.90;;;;;;5125314;28;19951;-68
2023/01/18 05:09:36;;;;;;;;;;;0.70;99.90;;;;;;5126010;28;19927;-68
2023/01/18 05:12:02;;;;;;;;;;;0.70;99.90;;;;;;5125520;28;19969;-68
2023/01/18 05:14:30;;;;;;;;;;;0.70;99.90;;;;;;5125860;28;20160;-68
2023/01/18 05:16:57;;;;;;;;;;;0.70;99.90;;;;;;5124806;28;19983;-68
2023/01/18 05:19:28;;;;;;;;;;;0.70;99.90;;;;;;5125435;28;19920;-68
2023/01/18 05:21:55;;;;;;;;;;;0.70;99.90;;;;;;5125240;28;19926;-68
2023/01/18 05:24:22;;;;;;;;;;;0.70;99.90;;;;;;5125830;28;19919;-69
2023/01/18 05:26:48;;;;;;;;;;;0.70;99.90;;;;;;5124497;28;19995;-68
2023/01/18 05:29:15;;;;;;;;;;;0.70;99.90;;;;;;5125439;28;19987;-68
2023/01/18 05:31:43;;;;;;;;;;;0.70;99.90;;;;;;5123338;28;19983;-68
2023/01/18 05:34:09;;;;;;;;;;;0.70;99.90;;;;;;5105069;28;19987;-68
2023/01/18 05:36:36;;;;;;;;;;;0.70;99.90;;;;;;5109154;28;20227;-68
2023/01/18 05:39:03;;;;;;;;;;;0.60;99.90;;;;;;5123796;28;19920;-68
2023/01/18 05:41:29;;;;;;;;;;;0.60;99.90;;;;;;5125212;28;20179;-68
2023/01/18 05:43:56;;;;;;;;;;;0.60;99.90;;;;;;5112824;28;19966;-69
2023/01/18 05:46:22;;;;;;;;;;;0.60;99.90;;;;;;5103610;28;19951;-68
2023/01/18 05:48:50;;;;;;;;;;;0.60;99.90;;;;;;5104337;28;19940;-68
2023/01/18 05:51:17;;;;;;;;;;;0.60;99.90;;;;;;5104849;28;19947;-68
2023/01/18 05:53:44;;;;;;;;;;;0.50;99.90;;;;;;5104365;28;19951;-68
2023/01/18 05:56:10;;;;;;;;;;;0.60;99.90;;;;;;5103582;28;19958;-69
2023/01/18 05:58:37;;;;;;;;;;;0.50;99.90;;;;;;5107098;28;19999;-68
2023/01/18 06:01:04;;;;;;;;;;;0.50;99.90;;;;;;5124556;28;19951;-68
2023/01/18 06:03:31;;;;;;;;;;;0.50;99.90;;;;;;5124885;28;19926;-68
2023/01/18 06:05:59;;;;;;;;;;;0.50;99.90;;;;;;5124039;28;20206;-68
2023/01/18 06:08:26;;;;;;;;;;;0.40;99.90;;;;;;5124347;28;20246;-68
2023/01/18 06:10:53;;;;;;;;;;;0.40;99.90;;;;;;5124557;28;19919;-68
2023/01/18 06:13:20;;;;;;;;;;;0.30;99.90;;;;;;5124491;28;19927;-68
2023/01/18 06:15:47;;;;;;;;;;;0.20;99.90;;;;;;5123988;28;19926;-67
2023/01/18 06:18:14;;;;;;;;;;;0.10;99.90;;;;;;5122357;28;20262;-71
2023/01/18 06:20:40;;;;;;;;;;;0.10;99.90;;;;;;5114748;28;19920;-68
2023/01/18 06:23:08;;;;;;;;;;;0.10;99.90;;;;;;5103984;28;19927;-68
2023/01/18 06:25:35;;;;;;;;;;;0.00;99.90;;;;;;5103972;28;19988;-69
2023/01/18 06:28:03;;;;;;;;;;;-0.10;99.90;;;;;;5103496;28;20060;-68
2023/01/18 06:30:30;;;;;;;;;;;-0.10;99.90;;;;;;5103820;28;20263;-69
2023/01/18 06:32:57;;;;;;;;;;;0.00;99.90;;;;;;5104025;28;19987;-68
2023/01/18 06:35:23;;;;;;;;;;;0.00;99.90;;;;;;5104089;28;19921;-68
2023/01/18 06:37:51;;;;;;;;;;;0.00;99.90;;;;;;5103141;28;19926;-69
2023/01/18 06:40:19;;;;;;;;;;;0.00;99.90;;;;;;5103741;28;19947;-68
2023/01/18 06:42:47;;;;;;;;;;;0.00;99.90;;;;;;5112160;28;19979;-68
2023/01/18 06:45:20;;;;;;;;;;;0.00;99.90;;;;;;5101174;28;19926;-68
2023/01/18 06:47:47;;;;;;;;;;;0.00;99.90;;;;;;5099776;28;19963;-68
2023/01/18 06:50:14;;;;;;;;;;;-0.10;99.90;;;;;;5104136;28;19920;-68
2023/01/18 06:52:41;;;;;;;;;;;-0.10;99.90;;;;;;5103929;28;19920;-68
2023/01/18 06:55:07;;;;;;;;;;;-0.10;99.90;;;;;;5103908;28;20199;-68
2023/01/18 06:57:35;;;;;;;;;;;-0.10;99.90;;;;;;5103255;28;19920;-68
2023/01/18 07:00:04;;;;;;;;;;;-0.10;99.90;;;;;;5118492;28;19926;-68
2023/01/18 07:02:31;;;;;;;;;;;-0.20;99.90;;;;;;5124204;28;19919;-68
2023/01/18 07:04:58;;;;;;;;;;;-0.10;99.90;;;;;;5124229;28;19985;-68
2023/01/18 07:07:24;;;;;;;;;;;-0.10;99.90;;;;;;5123635;28;19995;-68
2023/01/18 07:09:51;;;;;;;;;;;-0.20;99.90;;;;;;5123745;28;19983;-68
2023/01/18 07:12:18;;;;;;;;;;;-0.20;99.90;;;;;;5124168;28;19982;-68
2023/01/18 07:14:47;;;;;;;;;;;-0.10;99.90;;;;;;5124196;28;20009;-68
2023/01/18 07:17:14;;;;;;;;;;;-0.10;99.90;;;;;;5123553;28;19983;-68
2023/01/18 07:19:40;;;;;;;;;;;-0.10;99.90;;;;;;5124358;28;19983;-68
2023/01/18 07:22:07;;;;;;;;;;;-0.10;99.90;;;;;;5124121;28;19926;-68
2023/01/18 07:24:33;;;;;;;;;;;-0.20;99.90;;;;;;5127371;28;19986;-69
2023/01/18 07:27:00;;;;;;;;;;;-0.20;99.90;;;;;;5127224;28;20172;-68
2023/01/18 07:29:27;;;;;;;;;;;-0.30;99.90;;;;;;5127905;28;19920;-68
2023/01/18 07:31:56;;;;;;;;;;;-0.30;99.90;;;;;;5127628;28;19920;-68
2023/01/18 07:34:23;;;;;;;;;;;-0.30;99.90;;;;;;5127916;28;19920;-68
2023/01/18 07:36:49;;;;;;;;;;;-0.30;99.90;;;;;;5126774;28;19983;-68
2023/01/18 07:39:16;;;;;;;;;;;-0.30;99.90;;;;;;5127564;28;19986;-68
2023/01/18 07:41:42;;;;;;;;;;;-0.30;99.90;;;;;;5127775;28;19982;-68
2023/01/18 07:44:10;;;;;;;;;;;-0.30;99.90;;;;;;5127250;28;19955;-68
2023/01/18 07:46:37;;;;;;;;;;;-0.30;99.90;;;;;;5126261;28;19919;-68
2023/01/18 07:49:05;;;;;;;;;;;-0.20;99.90;;;;;;5123109;28;19921;-68
2023/01/18 07:51:33;;;;;;;;;;;-0.20;99.90;;;;;;5127269;28;20245;-68
2023/01/18 07:54:00;;;;;;;;;;;-0.20;99.90;;;;;;5127251;28;19972;-68
2023/01/18 07:56:27;;;;;;;;;;;-0.20;99.90;;;;;;5126667;28;19919;-68
2023/01/18 07:58:54;;;;;;;;;;;-0.10;99.90;;;;;;5125939;28;19978;-68
2023/01/18 08:01:22;;;;;;;;;;;-0.10;99.90;;;;;;5127228;28;19920;-68
2023/01/18 08:03:49;;;;;;;;;;;-0.10;99.90;;;;;;5127246;28;19934;-68
2023/01/18 08:06:19;;;;;;;;;;;-0.10;99.90;;;;;;5126397;28;19986;-68
2023/01/18 08:08:46;;;;;;;;;;;0.00;99.90;;;;;;5127019;28;19926;-68
2023/01/18 08:11:12;;;;;;;;;;;0.00;99.90;;;;;;5127161;28;19926;-68
2023/01/18 08:13:40;;;;;;;;;;;-0.10;99.90;;;;;;5126669;28;19987;-68
2023/01/18 08:16:08;;;;;;;;;;;-0.10;99.90;;;;;;5126223;28;19961;-68
2023/01/18 08:18:34;;;;;;;;;;;-0.10;99.90;;;;;;5127015;28;19920;-68
2023/01/18 08:21:01;;;;;;;;;;;-0.20;99.90;;;;;;5126809;28;20192;-68
2023/01/18 08:23:29;;;;;;;;;;;-0.20;99.90;;;;;;5126432;28;19995;-68
2023/01/18 08:26:00;;;;;;;;;;;-0.20;99.90;;;;;;5126451;28;20093;-68
2023/01/18 08:28:26;;;;;;;;;;;-0.20;99.90;;;;;;5126387;28;19920;-68
2023/01/18 08:30:53;;;;;;;;;;;-0.20;99.90;;;;;;5126775;28;19974;-68
2023/01/18 08:33:21;;;;;;;;;;;-0.20;99.90;;;;;;5126675;28;19987;-68
2023/01/18 08:35:47;;;;;;;;;;;-0.20;99.90;;;;;;5125936;28;19927;-68
2023/01/18 08:38:15;;;;;;;;;;;-0.20;99.90;;;;;;5126768;28;19926;-68
2023/01/18 08:40:43;;;;;;;;;;;-0.20;99.90;;;;;;5126200;28;19926;-68
2023/01/18 08:43:10;;;;;;;;;;;-0.30;99.90;;;;;;5124374;28;19919;-69
2023/01/18 08:45:37;;;;;;;;;;;-0.30;99.90;;;;;;5125858;28;19942;-69
2023/01/18 08:48:04;;;;;;;;;;;-0.40;99.90;;;;;;5125771;28;20250;-68
2023/01/18 08:50:31;;;;;;;;;;;-0.30;99.90;;;;;;5126305;28;19995;-68
2023/01/18 08:52:59;;;;;;;;;;;-0.30;99.90;;;;;;5126186;28;19989;-68
2023/01/18 08:55:27;;;;;;;;;;;-0.20;99.90;;;;;;5126337;28;19920;-68
2023/01/18 08:57:55;;;;;;;;;;;-0.20;99.90;;;;;;5125301;28;19920;-68
2023/01/18 09:00:23;;;;;;;;;;;-0.20;99.90;;;;;;5126223;28;19978;-68
2023/01/18 09:02:52;;;;;;;;;;;-0.20;99.90;;;;;;5123357;28;20146;-68
2023/01/18 09:05:19;;;;;;;;;;;-0.30;99.90;;;;;;5126073;28;19987;-68
2023/01/18 09:07:46;;;;;;;;;;;-0.30;99.90;;;;;;5125389;28;19978;-68
2023/01/18 09:10:13;;;;;;;;;;;-0.20;99.90;;;;;;5126073;28;19959;-69
2023/01/18 09:12:40;;;;;;;;;;;-0.20;99.90;;;;;;5125827;28;19988;-68
2023/01/18 09:15:08;;;;;;;;;;;-0.20;99.90;;;;;;5125769;28;19926;-68
2023/01/18 09:17:35;;;;;;;;;;;-0.20;99.90;;;;;;5112108;28;19927;-68
2023/01/18 09:20:01;;;;;;;;;;;-0.10;99.90;;;;;;5105420;28;19983;-67
2023/01/18 09:22:28;;;;;;;;;;;-0.10;99.90;;;;;;5104957;28;20170;-68
2023/01/18 09:24:56;;;;;;;;;;;-0.10;99.90;;;;;;5104729;28;19987;-68
2023/01/18 09:27:23;;;;;;;;;;;-0.10;99.90;;;;;;5115081;28;19926;-68
2023/01/18 09:29:51;;;;;;;;;;;-0.10;99.90;;;;;;5125658;28;19951;-68
2023/01/18 09:32:20;;;;;;;;;;;-0.10;99.90;;;;;;5125295;28;19943;-68
2023/01/18 09:34:49;;;;;;;;;;;-0.20;99.90;;;;;;5125380;28;19920;-68
2023/01/18 09:37:16;;;;;;;;;;;-0.20;99.90;;;;;;5124477;28;19951;-68
2023/01/18 09:39:42;;;;;;;;;;;-0.10;99.90;;;;;;5125498;28;19919;-68
2023/01/18 09:42:16;;;;;;;;;;;-0.20;99.90;;;;;;5125164;28;20108;-68
2023/01/18 09:44:44;;;;;;;;;;;-0.20;99.90;;;;;;5106372;28;19979;-68
2023/01/18 09:47:12;;;;;;;;;;;-0.20;99.90;;;;;;5103564;28;19927;-68
2023/01/18 09:49:44;;;;;;;;;;;-0.20;99.90;;;;;;5114942;28;20203;-68
2023/01/18 09:52:20;;;;;;;;;;;-0.20;99.90;;;;;;5125177;28;19926;-68
2023/01/18 09:54:51;;;;;;;;;;;-0.20;99.90;;;;;;5122500;28;19986;-68
2023/01/18 09:57:22;;;;;;;;;;;-0.20;99.90;;;;;;5124377;28;20180;-68
2023/01/18 09:59:52;;;;;;;;;;;-0.20;99.90;;;;;;5124979;28;19926;-68
2023/01/18 10:02:22;;;;;;;;;;;-0.20;99.90;;;;;;5125015;28;19926;-68
2023/01/18 10:04:52;;;;;;;;;;;-0.20;99.90;;;;;;5124989;28;20112;-68
2023/01/18 10:07:20;;;;;;;;;;;-0.30;99.90;;;;;;5124363;28;20161;-68
2023/01/18 10:09:49;;;;;;;;;;;-0.30;99.90;;;;;;5124892;28;19958;-68
2023/01/18 10:12:20;;;;;;;;;;;-0.30;99.90;;;;;;5124810;28;19920;-68
2023/01/18 10:14:50;;;;;;;;;;;-0.20;99.90;;;;;;5124750;28;19983;-68
2023/01/18 10:17:21;;;;;;;;;;;-0.30;99.90;;;;;;5124018;28;20263;-69
2023/01/18 10:19:48;;;;;;;;;;;-0.30;99.90;;;;;;5124907;28;19926;-68
2023/01/18 10:22:19;;;;;;;;;;;-0.30;99.90;;;;;;5124532;28;19962;-69
2023/01/18 10:24:49;;;;;;;;;;;-0.20;99.90;;;;;;5124706;28;19919;-68
2023/01/18 10:27:34;;;;;;;;;;;-0.20;99.90;;;;;;5123992;28;20160;-68
2023/01/18 10:30:15;;;;;;;;;;;-0.20;99.90;;;;;;5124684;28;19961;-68
2023/01/18 10:32:43;;;;;;;;;;;-0.20;99.90;;;;;;5124272;28;19955;-68
2023/01/18 10:35:13;;;;;;;;;;;-0.20;99.90;;;;;;5124282;28;19983;-68
2023/01/18 10:37:44;;;;;;;;;;;-0.10;99.90;;;;;;5123812;28;19920;-68
2023/01/18 10:40:12;;;;;;;;;;;-0.20;99.90;;;;;;5124178;28;19920;-68
2023/01/18 10:42:40;;;;;;;;;;;-0.10;99.90;;;;;;5123250;28;19919;-68
2023/01/18 10:45:11;;;;;;;;;;;-0.10;99.90;;;;;;5123129;28;19920;-68
2023/01/18 10:47:38;;;;;;;;;;;-0.20;99.90;;;;;;5123829;28;19926;-68
2023/01/18 10:50:11;;;;;;;;;;;-0.20;99.90;;;;;;5124412;28;20003;-68
2023/01/18 10:52:38;;;;;;;;;;;-0.10;99.90;;;;;;5124386;28;19919;-68
2023/01/18 10:55:07;;;;;;;;;;;-0.10;99.90;;;;;;5124274;28;19920;-68
2023/01/18 10:57:35;;;;;;;;;;;-0.10;99.90;;;;;;5125148;28;20233;-68
2023/01/18 11:00:04;;;;;;;;;;;-0.10;99.90;;;;;;5128068;28;19987;-68
2023/01/18 11:02:34;;;;;;;;;;;-0.10;99.90;;;;;;5128499;28;19926;-68
2023/01/18 11:05:02;;;;;;;;;;;-0.10;99.90;;;;;;5127972;28;20020;-68
2023/01/18 11:07:29;;;;;;;;;;;-0.10;99.90;;;;;;5127726;28;19920;-68
2023/01/18 11:09:58;;;;;;;;;;;-0.20;99.90;;;;;;5128065;28;19920;-68
2023/01/18 11:12:36;;;;;;;;;;;-0.20;99.90;;;;;;5128030;28;19920;-68
2023/01/18 11:15:35;;;;;;;;;;;-0.20;99.90;;;;;;5128328;28;19920;-68
2023/01/18 11:18:04;;;;;;;;;;;-0.20;99.90;;;;;;5045044;28;19983;-68
2023/01/18 11:20:34;;;;;;;;;;;-0.10;99.90;;;;;;5045320;28;19989;-68
2023/01/18 11:23:01;;;;;;;;;;;-0.10;99.90;;;;;;5084407;28;19927;-68
2023/01/18 11:25:35;;;;;;;;;;;-0.10;99.90;;;;;;5127956;28;19926;-68
2023/01/18 11:28:06;;;;;;;;;;;-0.10;99.90;;;;;;5127559;28;19919;-68
2023/01/18 11:30:33;;;;;;;;;;;-0.10;99.90;;;;;;5128149;28;19928;-68
2023/01/18 11:32:59;;;;;;;;;;;-0.10;99.90;;;;;;5128055;28;19926;-67
2023/01/18 11:35:30;;;;;;;;;;;-0.10;99.90;;;;;;5127439;28;19919;-68
2023/01/18 11:37:58;;;;;;;;;;;-0.10;99.90;;;;;;5125801;28;19990;-68
2023/01/18 11:40:28;;;;;;;;;;;-0.10;99.90;;;;;;5123281;28;19919;-68
2023/01/18 11:42:58;;;;;;;;;;;-0.10;99.90;;;;;;5118771;28;20051;-68
2023/01/18 11:45:29;;;;;;;;;;;-0.10;99.90;;;;;;5106840;28;19987;-68
2023/01/18 11:48:00;;;;;;;;;;;-0.10;99.90;;;;;;5121274;28;19994;-68
2023/01/18 11:50:29;;;;;;;;;;;-0.10;99.90;;;;;;5127631;28;19935;-68
2023/01/18 11:52:59;;;;;;;;;;;-0.20;99.90;;;;;;5127503;28;19926;-68
2023/01/18 11:55:30;;;;;;;;;;;-0.10;99.90;;;;;;5120882;28;19920;-67
2023/01/18 11:57:57;;;;;;;;;;;-0.10;99.90;;;;;;5106381;28;19927;-68
2023/01/18 12:00:27;;;;;;;;;;;0.00;99.90;;;;;;5124417;28;19926;-68
2023/01/18 12:03:06;;;;;;;;;;;0.00;99.90;;;;;;5127277;28;19926;-68
2023/01/18 12:05:37;;;;;;;;;;;0.00;99.90;;;;;;5126915;28;19960;-68
2023/01/18 12:08:25;;;;;;;;;;;0.00;99.90;;;;;;5126816;28;19982;-68
2023/01/18 12:11:02;;;;;;;;;;;0.00;99.90;;;;;;5127067;28;19965;-68
2023/01/18 12:13:33;;;;;;;;;;;0.00;99.90;;;;;;5127059;28;19926;-68
2023/01/18 12:16:07;;;;;;;;;;;0.00;99.90;;;;;;5125942;28;19920;-68
2023/01/18 12:18:43;;;;;;;;;;;0.00;99.90;;;;;;5106464;28;19920;-67
2023/01/18 12:21:11;;;;;;;;;;;0.10;99.90;;;;;;5106276;28;20116;-68
2023/01/18 12:23:59;;;;;;;;;;;0.00;99.90;;;;;;5106181;28;19921;-67
2023/01/18 12:26:31;;;;;;;;;;;0.00;99.90;;;;;;5105810;28;19960;-69
2023/01/18 12:29:10;;;;;;;;;;;0.00;99.90;;;;;;5106447;28;19924;-68
2023/01/18 12:31:45;;;;;;;;;;;0.10;99.90;;;;;;5106066;28;19983;-68
2023/01/18 12:34:14;;;;;;;;;;;0.00;99.90;;;;;;5106111;28;20279;-68
2023/01/18 12:36:51;;;;;;;;;;;0.00;99.90;;;;;;5113338;28;20118;-68
2023/01/18 12:39:25;;;;;;;;;;;0.00;99.90;;;;;;5120832;28;19958;-67
2023/01/18 12:41:56;;;;;;;;;;;0.00;99.90;;;;;;5126178;28;19988;-68
2023/01/18 12:44:34;;;;;;;;;;;0.00;99.90;;;;;;5106272;28;19920;-69
2023/01/18 12:47:06;;;;;;;;;;;0.00;99.90;;;;;;5110377;28;19926;-68
2023/01/18 12:49:36;;;;;;;;;;;0.10;99.90;;;;;;5108182;28;20150;-68
2023/01/18 12:52:04;;;;;;;;;;;0.10;99.90;;;;;;5126492;28;19920;-68
2023/01/18 12:54:33;;;;;;;;;;;0.10;99.90;;;;;;5117740;28;19920;-68
2023/01/18 12:57:00;;;;;;;;;;;0.20;99.90;;;;;;5105339;28;20115;-68
2023/01/18 12:59:29;;;;;;;;;;;0.10;99.90;;;;;;5115410;28;19982;-68
2023/01/18 13:02:00;;;;;;;;;;;0.20;99.90;;;;;;5126265;28;19919;-68
2023/01/18 13:04:29;;;;;;;;;;;0.20;99.90;;;;;;5125846;28;19926;-68
2023/01/18 13:06:59;;;;;;;;;;;0.20;99.90;;;;;;5125022;28;19927;-68
2023/01/18 13:09:32;;;;;;;;;;;0.10;99.90;;;;;;5126136;28;19926;-68
2023/01/18 13:12:00;;;;;;;;;;;0.10;99.90;;;;;;5126109;28;19920;-68
2023/01/18 13:14:32;;;;;;;;;;;0.20;99.90;;;;;;5126138;28;19988;-68
2023/01/18 13:17:02;;;;;;;;;;;0.20;99.90;;;;;;5125460;28;19926;-68
2023/01/18 13:19:33;;;;;;;;;;;0.20;99.90;;;;;;5122685;28;19926;-68
2023/01/18 13:22:06;;;;;;;;;;;0.20;99.90;;;;;;5111942;28;19928;-68
2023/01/18 13:24:47;;;;;;;;;;;0.30;99.90;;;;;;5125825;28;19958;-68
2023/01/18 13:27:15;;;;;;;;;;;0.30;99.90;;;;;;5125381;28;19920;-66
2023/01/18 13:29:42;;;;;;;;;;;0.30;99.90;;;;;;5125294;28;20336;-68
2023/01/18 13:32:25;;;;;;;;;;;0.30;99.90;;;;;;5125329;28;20118;-68
2023/01/18 13:35:01;;;;;;;;;;;0.30;99.90;;;;;;5122396;28;20203;-68
2023/01/18 13:37:40;;;;;;;;;;;0.30;99.90;;;;;;5124493;28;19955;-68
2023/01/18 13:40:19;;;;;;;;;;;0.40;99.90;;;;;;5125115;28;19920;-68
2023/01/18 13:42:46;;;;;;;;;;;0.40;99.90;;;;;;5124816;28;20229;-68
2023/01/18 13:45:16;;;;;;;;;;;0.40;99.90;;;;;;5124891;28;19919;-68
2023/01/18 13:47:47;;;;;;;;;;;0.40;99.90;;;;;;5110074;28;19952;-70
2023/01/18 13:50:33;;;;;;;;;;;0.40;99.90;;;;;;5104915;28;19920;-69
2023/01/18 13:53:23;;;;;;;;;;;0.40;99.90;;;;;;5104515;28;20199;-69
2023/01/18 13:56:09;;;;;;;;;;;0.50;99.90;;;;;;5104143;28;19920;-70
2023/01/18 13:58:37;;;;;;;;;;;0.50;99.90;;;;;;5094075;28;19920;-68
2023/01/18 14:01:05;;;;;;;;;;;0.40;99.90;;;;;;5125057;28;19919;-68
2023/01/18 14:03:32;;;;;;;;;;;0.40;99.90;;;;;;5124967;28;19951;-68
2023/01/18 14:06:07;;;;;;;;;;;0.40;99.90;;;;;;5124067;28;19928;-68
2023/01/18 14:08:37;;;;;;;;;;;0.40;99.90;;;;;;5125079;28;19926;-68
2023/01/18 14:11:04;;;;;;;;;;;0.40;99.90;;;;;;5124933;28;19942;-68
2023/01/18 14:13:55;;;;;;;;;;;0.40;99.90;;;;;;5124569;28;20261;-69
2023/01/18 14:16:23;;;;;;;;;;;0.40;99.90;;;;;;5120785;28;19926;-68
2023/01/18 14:18:52;;;;;;;;;;;0.50;99.90;;;;;;5124404;28;20255;-68
2023/01/18 14:21:24;;;;;;;;;;;0.50;99.90;;;;;;5124809;28;19919;-68
2023/01/18 14:24:09;;;;;;;;;;;0.50;99.90;;;;;;5104341;28;19920;-68
2023/01/18 14:26:38;;;;;;;;;;;0.40;99.90;;;;;;5118531;28;19951;-68
2023/01/18 14:29:06;;;;;;;;;;;0.50;99.90;;;;;;5124407;28;19926;-68
2023/01/18 14:31:34;;;;;;;;;;;0.50;99.90;;;;;;5124216;28;19986;-68
2023/01/18 14:34:15;;;;;;;;;;;0.50;99.90;;;;;;5124096;28;19987;-68
2023/01/18 14:36:47;;;;;;;;;;;0.50;99.90;;;;;;5120187;28;19920;-69
2023/01/18 14:39:16;;;;;;;;;;;0.50;99.90;;;;;;5103242;28;19920;-68
2023/01/18 14:41:45;;;;;;;;;;;0.50;99.90;;;;;;5104277;28;19942;-68
2023/01/18 14:44:13;;;;;;;;;;;0.50;99.90;;;;;;5104092;28;19951;-68
2023/01/18 14:46:41;;;;;;;;;;;0.50;99.90;;;;;;5116740;28;20306;-68
2023/01/18 14:49:14;;;;;;;;;;;0.50;99.90;;;;;;5124418;28;19946;-68
2023/01/18 14:51:45;;;;;;;;;;;0.50;99.90;;;;;;5124395;28;19919;-68
2023/01/18 14:54:15;;;;;;;;;;;0.50;99.90;;;;;;5124165;28;20246;-68
2023/01/18 14:56:42;;;;;;;;;;;0.50;99.90;;;;;;5123075;28;19950;-68
2023/01/18 14:59:18;;;;;;;;;;;0.50;99.90;;;;;;5103840;28;19959;-69
2023/01/18 15:01:51;;;;;;;;;;;0.50;99.90;;;;;;5103535;28;19920;-68
2023/01/18 15:04:19;;;;;;;;;;;0.50;99.90;;;;;;5103496;28;19956;-68
2023/01/18 15:06:47;;;;;;;;;;;0.50;99.90;;;;;;5102837;28;19920;-68
2023/01/18 15:09:14;;;;;;;;;;;0.50;99.90;;;;;;5103509;28;19991;-68
2023/01/18 15:11:42;;;;;;;;;;;0.50;99.90;;;;;;5119723;28;19920;-67